Time;durP1;ratioP1;P1;durP2;ratioP2;P2;SDS_P1;SDS_P2;PMS_P1;PMS_P2;Temp;Humidity;BMP_temperature;BMP_pressure;BME280_temperature;BME280_humidity;BME280_pressure;Samples;Min_cycle;Max_cycle;Signal;HPM_P1;HPM_P2
2023/09/02 00:02:03;;;;;;;23.80;14.30;;;15.20;99.90;;;;;;4936410;28;20440;-78
2023/09/02 00:04:29;;;;;;;24.10;15.10;;;15.20;99.90;;;;;;4934939;28;20039;-79
2023/09/02 00:06:54;;;;;;;34.97;18.65;;;15.30;99.90;;;;;;4929734;28;20043;-79
2023/09/02 00:09:20;;;;;;;34.58;19.27;;;15.40;99.90;;;;;;4950811;28;20447;-78
2023/09/02 00:11:46;;;;;;;27.27;17.88;;;15.30;99.90;;;;;;4933326;28;20069;-78
2023/09/02 00:14:13;;;;;;;34.45;20.63;;;15.20;99.90;;;;;;4935301;28;20027;-79
2023/09/02 00:16:39;;;;;;;31.85;19.42;;;15.20;99.90;;;;;;4950304;28;20061;-80
2023/09/02 00:19:04;;;;;;;27.30;17.35;;;15.20;99.90;;;;;;4949883;28;20067;-78
2023/09/02 00:21:32;;;;;;;22.63;15.70;;;15.20;99.90;;;;;;4940023;28;20309;-78
2023/09/02 00:24:07;;;;;;;33.20;19.50;;;15.20;99.90;;;;;;4931408;28;20490;-78
2023/09/02 00:26:33;;;;;;;29.33;18.27;;;15.30;99.90;;;;;;4918638;28;20098;-79
2023/09/02 00:28:59;;;;;;;24.17;16.02;;;15.20;99.90;;;;;;4948269;28;20038;-78
2023/09/02 00:31:26;;;;;;;30.83;19.00;;;15.30;99.90;;;;;;4936014;28;20031;-78
2023/09/02 00:33:52;;;;;;;33.00;19.13;;;15.30;99.90;;;;;;4933272;28;20043;-78
2023/09/02 00:36:17;;;;;;;32.08;18.50;;;15.20;99.90;;;;;;4951794;28;20041;-78
2023/09/02 00:38:43;;;;;;;33.20;16.48;;;15.20;99.90;;;;;;4952792;28;20035;-78
2023/09/02 00:41:12;;;;;;;35.95;21.08;;;15.20;99.90;;;;;;4932348;28;20039;-78
2023/09/02 00:43:37;;;;;;;40.67;22.17;;;15.20;99.90;;;;;;4913074;28;20046;-78
2023/09/02 00:46:04;;;;;;;36.03;21.38;;;15.20;99.90;;;;;;4919008;28;20057;-78
2023/09/02 00:48:30;;;;;;;31.00;19.88;;;15.20;99.90;;;;;;4933981;28;20034;-77
2023/09/02 00:50:56;;;;;;;36.90;22.08;;;15.20;99.90;;;;;;4947600;28;20035;-78
2023/09/02 00:53:24;;;;;;;36.50;21.25;;;15.10;99.90;;;;;;4946962;28;20040;-79
2023/09/02 00:55:49;;;;;;;39.25;21.80;;;15.00;99.90;;;;;;4920286;28;20041;-78
2023/09/02 00:58:15;;;;;;;41.22;21.75;;;15.00;99.90;;;;;;4937367;28;20495;-78
2023/09/02 01:00:41;;;;;;;42.20;22.10;;;14.90;99.90;;;;;;4945417;28;20035;-77
2023/09/02 01:03:06;;;;;;;39.53;21.00;;;15.00;99.90;;;;;;4933440;28;20057;-78
2023/09/02 01:05:32;;;;;;;20.30;13.48;;;15.00;99.90;;;;;;4931666;28;20038;-78
2023/09/02 01:07:58;;;;;;;20.35;14.13;;;15.00;99.90;;;;;;4919612;28;20553;-78
2023/09/02 01:10:23;;;;;;;31.75;20.00;;;15.10;99.90;;;;;;4936542;28;20101;-78
2023/09/02 01:12:49;;;;;;;37.85;21.45;;;15.10;99.90;;;;;;4939848;28;20497;-77
2023/09/02 01:15:15;;;;;;;37.88;20.85;;;15.10;99.90;;;;;;4949314;28;20035;-78
2023/09/02 01:17:40;;;;;;;37.55;21.05;;;15.10;99.90;;;;;;4934768;28;20066;-78
2023/09/02 01:20:06;;;;;;;21.90;14.98;;;15.10;99.90;;;;;;4947371;28;20031;-77
2023/09/02 01:22:35;;;;;;;11.32;8.85;;;15.10;99.90;;;;;;4949862;28;20159;-77
2023/09/02 01:25:26;;;;;;;35.78;19.63;;;15.10;99.90;;;;;;4959962;28;20034;-79
2023/09/02 01:27:53;;;;;;;29.58;17.73;;;15.00;99.90;;;;;;4913022;28;20181;-78
2023/09/02 01:30:19;;;;;;;30.70;18.65;;;15.00;99.90;;;;;;4933739;28;20043;-78
2023/09/02 01:32:46;;;;;;;33.20;19.48;;;15.00;99.90;;;;;;4917412;28;20039;-77
2023/09/02 01:35:18;;;;;;;35.40;20.75;;;14.90;99.90;;;;;;4932382;28;20073;-78
2023/09/02 01:37:45;;;;;;;34.78;20.35;;;14.90;99.90;;;;;;4933227;28;20045;-78
2023/09/02 01:40:13;;;;;;;35.15;20.40;;;15.00;99.90;;;;;;4916458;28;20029;-78
2023/09/02 01:42:39;;;;;;;18.77;12.40;;;14.90;99.90;;;;;;4916963;28;20049;-78
2023/09/02 01:45:05;;;;;;;29.40;16.90;;;15.00;99.90;;;;;;4935352;28;20034;-79
2023/09/02 01:47:31;;;;;;;15.10;10.63;;;15.10;99.90;;;;;;4932051;28;20038;-78
2023/09/02 01:49:56;;;;;;;32.15;19.38;;;15.10;99.90;;;;;;4936282;28;20483;-78
2023/09/02 01:52:22;;;;;;;32.92;19.70;;;15.10;99.90;;;;;;4934110;28;20385;-78
2023/09/02 01:54:47;;;;;;;38.65;20.20;;;15.10;99.90;;;;;;4947345;28;20062;-78
2023/09/02 01:57:13;;;;;;;31.60;17.02;;;15.10;99.90;;;;;;4931587;28;20046;-78
2023/09/02 01:59:38;;;;;;;29.58;17.00;;;15.10;99.90;;;;;;4928539;28;20534;-78
2023/09/02 02:02:04;;;;;;;34.28;20.27;;;15.20;99.90;;;;;;4933216;28;20030;-77
2023/09/02 02:04:33;;;;;;;33.10;19.15;;;15.20;99.90;;;;;;4933635;28;20088;-78
2023/09/02 02:07:05;;;;;;;41.17;21.08;;;15.20;99.90;;;;;;4949036;28;20042;-78
2023/09/02 02:09:37;;;;;;;21.77;12.65;;;15.30;99.90;;;;;;4940111;28;20030;-78
2023/09/02 02:12:03;;;;;;;32.53;18.70;;;15.30;99.90;;;;;;4936976;28;20035;-78
2023/09/02 02:14:32;;;;;;;22.70;15.27;;;15.40;99.90;;;;;;4932647;28;20402;-78
2023/09/02 02:16:58;;;;;;;20.75;13.73;;;15.40;99.90;;;;;;4935132;28;20518;-78
2023/09/02 02:19:23;;;;;;;34.55;19.98;;;15.40;99.90;;;;;;4943275;28;20031;-77
2023/09/02 02:21:50;;;;;;;35.00;20.27;;;15.40;99.90;;;;;;4945570;28;20153;-78
2023/09/02 02:24:15;;;;;;;38.75;20.13;;;15.40;99.90;;;;;;4933759;28;20030;-78
2023/09/02 02:26:41;;;;;;;40.05;20.45;;;15.30;99.90;;;;;;4934065;28;20371;-77
2023/09/02 02:29:07;;;;;;;33.25;17.42;;;15.30;99.90;;;;;;4933308;28;20355;-78
2023/09/02 02:31:34;;;;;;;34.88;19.77;;;15.30;99.90;;;;;;4947153;28;20035;-77
2023/09/02 02:34:00;;;;;;;17.67;11.45;;;15.40;99.90;;;;;;4933019;28;20057;-78
2023/09/02 02:36:25;;;;;;;27.08;15.00;;;15.40;99.90;;;;;;4929464;28;20050;-78
2023/09/02 02:38:51;;;;;;;32.85;17.23;;;15.50;99.90;;;;;;4918261;28;20039;-77
2023/09/02 02:41:16;;;;;;;17.67;11.75;;;15.50;99.90;;;;;;4927601;28;20031;-78
2023/09/02 02:43:42;;;;;;;22.08;12.45;;;15.50;99.90;;;;;;4943617;28;20043;-78
2023/09/02 02:46:08;;;;;;;24.48;13.13;;;15.60;99.90;;;;;;4919070;28;20396;-77
2023/09/02 02:48:33;;;;;;;13.55;9.25;;;15.60;99.90;;;;;;4931643;28;20039;-77
2023/09/02 02:50:59;;;;;;;13.40;9.68;;;15.60;99.90;;;;;;4948830;28;20035;-78
2023/09/02 02:53:24;;;;;;;13.23;9.45;;;15.60;99.90;;;;;;4927432;28;20044;-78
2023/09/02 02:55:50;;;;;;;21.50;14.15;;;15.50;99.90;;;;;;4950178;28;20050;-78
2023/09/02 02:58:16;;;;;;;12.40;8.48;;;15.60;99.90;;;;;;4946057;28;20486;-78
2023/09/02 03:00:43;;;;;;;7.90;6.70;;;15.50;99.90;;;;;;4944927;28;20102;-78
2023/09/02 03:03:09;;;;;;;12.32;7.22;;;15.60;99.90;;;;;;4912080;28;20065;-78
2023/09/02 03:05:38;;;;;;;14.63;10.30;;;15.60;99.90;;;;;;4930527;28;20085;-78
2023/09/02 03:08:05;;;;;;;17.25;10.55;;;15.60;99.90;;;;;;4928144;28;20040;-79
2023/09/02 03:10:33;;;;;;;15.40;11.25;;;15.50;99.90;;;;;;4937606;28;20035;-78
2023/09/02 03:12:59;;;;;;;19.73;13.77;;;15.50;99.90;;;;;;4926993;28;20027;-78
2023/09/02 03:15:25;;;;;;;18.65;11.88;;;15.40;99.90;;;;;;4919858;28;20380;-79
2023/09/02 03:17:50;;;;;;;15.88;10.32;;;15.40;99.90;;;;;;4936545;28;20050;-78
2023/09/02 03:20:16;;;;;;;15.65;10.23;;;15.50;99.90;;;;;;4946561;28;20138;-77
2023/09/02 03:22:41;;;;;;;18.55;12.02;;;15.40;99.90;;;;;;4928654;28;20052;-78
2023/09/02 03:25:08;;;;;;;15.90;10.70;;;15.40;99.90;;;;;;4949306;28;20539;-78
2023/09/02 03:27:37;;;;;;;17.20;10.82;;;15.40;99.90;;;;;;4934392;28;20395;-78
2023/09/02 03:30:03;;;;;;;11.70;6.38;;;15.30;99.90;;;;;;4932449;28;20537;-77
2023/09/02 03:32:29;;;;;;;11.95;8.90;;;15.30;99.90;;;;;;4945003;28;20458;-77
2023/09/02 03:34:54;;;;;;;8.38;6.07;;;15.30;99.90;;;;;;4948741;28;20034;-78
2023/09/02 03:37:20;;;;;;;10.75;7.40;;;15.30;99.90;;;;;;4918622;28;20026;-79
2023/09/02 03:39:45;;;;;;;11.23;6.55;;;15.30;99.90;;;;;;4930428;28;20077;-78
2023/09/02 03:42:11;;;;;;;8.75;6.88;;;15.20;99.90;;;;;;4929798;28;20034;-77
2023/09/02 03:44:37;;;;;;;8.27;6.57;;;15.30;99.90;;;;;;4929140;28;20038;-77
2023/09/02 03:47:03;;;;;;;11.32;7.63;;;15.20;99.90;;;;;;4947782;28;20479;-78
2023/09/02 03:49:28;;;;;;;10.77;7.57;;;15.20;99.90;;;;;;4934073;28;20519;-77
2023/09/02 03:51:54;;;;;;;9.25;6.90;;;15.30;99.90;;;;;;4948349;28;20037;-78
2023/09/02 03:54:20;;;;;;;6.15;5.00;;;15.30;99.90;;;;;;4935333;28;20035;-78
2023/09/02 03:56:45;;;;;;;12.90;8.68;;;15.20;99.90;;;;;;4935480;28;20084;-79
2023/09/02 03:59:11;;;;;;;12.73;8.57;;;15.20;99.90;;;;;;4918431;28;20027;-77
2023/09/02 04:01:37;;;;;;;8.30;5.80;;;15.10;99.90;;;;;;4931491;28;20031;-78
2023/09/02 04:04:02;;;;;;;10.68;7.95;;;15.10;99.90;;;;;;4947479;28;21298;-78
2023/09/02 04:06:28;;;;;;;9.82;6.78;;;15.20;99.90;;;;;;4915475;28;20115;-78
2023/09/02 04:08:54;;;;;;;8.90;6.05;;;15.20;99.90;;;;;;4932761;28;20596;-78
2023/09/02 04:11:19;;;;;;;10.38;7.82;;;15.20;99.90;;;;;;4952345;28;20034;-77
2023/09/02 04:13:45;;;;;;;7.47;6.15;;;15.10;99.90;;;;;;4952005;28;20746;-78
2023/09/02 04:16:10;;;;;;;10.43;8.82;;;15.10;99.90;;;;;;4933113;28;20102;-79
2023/09/02 04:18:36;;;;;;;14.45;10.02;;;15.10;99.90;;;;;;4916537;28;20036;-77
2023/09/02 04:21:02;;;;;;;13.55;9.65;;;15.10;99.90;;;;;;4899255;28;20364;-78
2023/09/02 04:23:28;;;;;;;13.25;9.57;;;14.90;99.90;;;;;;4924405;28;20045;-78
2023/09/02 04:25:55;;;;;;;12.20;9.98;;;15.00;99.90;;;;;;4930812;28;20305;-77
2023/09/02 04:28:20;;;;;;;11.25;9.20;;;15.00;99.90;;;;;;4928591;28;20077;-78
2023/09/02 04:30:46;;;;;;;12.20;8.20;;;15.00;99.90;;;;;;4933319;28;20486;-78
2023/09/02 04:33:12;;;;;;;10.25;8.82;;;15.00;99.90;;;;;;4950253;28;20035;-78
2023/09/02 04:35:39;;;;;;;11.85;9.15;;;15.00;99.90;;;;;;4927928;28;20511;-78
2023/09/02 04:38:05;;;;;;;13.80;7.57;;;15.00;99.90;;;;;;4929620;28;20062;-78
2023/09/02 04:40:31;;;;;;;8.00;6.22;;;15.00;99.90;;;;;;4932447;28;20582;-77
2023/09/02 04:42:56;;;;;;;8.15;6.28;;;15.00;99.90;;;;;;4933067;28;20035;-77
2023/09/02 04:45:22;;;;;;;7.57;4.82;;;15.10;99.90;;;;;;4930353;28;20035;-78
2023/09/02 04:47:48;;;;;;;8.75;6.07;;;15.10;99.90;;;;;;4945308;28;20050;-78
2023/09/02 04:50:14;;;;;;;6.13;5.25;;;15.10;99.90;;;;;;4946252;28;20019;-78
2023/09/02 04:52:40;;;;;;;11.40;6.68;;;15.10;99.90;;;;;;4963559;28;20038;-79
2023/09/02 04:55:05;;;;;;;6.18;5.57;;;15.20;99.90;;;;;;4943221;28;20083;-78
2023/09/02 04:57:33;;;;;;;6.60;5.93;;;15.10;99.90;;;;;;4919740;28;20048;-77
2023/09/02 04:59:59;;;;;;;5.85;5.10;;;15.10;99.90;;;;;;4914876;28;20515;-77
2023/09/02 05:02:24;;;;;;;6.80;5.72;;;15.10;99.90;;;;;;4946263;28;20082;-77
2023/09/02 05:04:51;;;;;;;8.50;5.50;;;15.10;99.90;;;;;;4929305;28;20027;-78
2023/09/02 05:07:17;;;;;;;8.00;4.70;;;15.20;99.90;;;;;;4919647;28;20036;-78
2023/09/02 05:09:42;;;;;;;7.07;5.53;;;15.20;99.90;;;;;;4927772;28;20471;-78
2023/09/02 05:12:08;;;;;;;6.15;4.95;;;15.20;99.90;;;;;;4925688;28;20067;-77
2023/09/02 05:14:34;;;;;;;8.20;5.07;;;15.20;99.90;;;;;;4914677;28;20047;-78
2023/09/02 05:16:59;;;;;;;9.63;5.82;;;15.20;99.90;;;;;;4897898;28;20547;-77
2023/09/02 05:19:25;;;;;;;12.65;5.93;;;15.10;99.90;;;;;;4923063;28;20037;-78
2023/09/02 05:21:51;;;;;;;7.95;6.18;;;15.10;99.90;;;;;;4945341;28;20035;-78
2023/09/02 05:24:16;;;;;;;8.02;5.93;;;15.10;99.90;;;;;;4916458;28;20042;-76
2023/09/02 05:26:42;;;;;;;8.75;5.95;;;15.10;99.90;;;;;;4930396;29;20039;-77
2023/09/02 05:29:07;;;;;;;6.13;5.03;;;15.30;99.90;;;;;;4945302;28;20380;-77
2023/09/02 05:31:33;;;;;;;9.15;4.88;;;15.40;99.90;;;;;;4946130;28;20030;-77
2023/09/02 05:33:58;;;;;;;5.43;3.30;;;15.30;99.90;;;;;;4949324;28;20372;-77
2023/09/02 05:36:24;;;;;;;3.17;2.88;;;15.50;99.90;;;;;;4945993;28;20054;-77
2023/09/02 05:38:50;;;;;;;5.00;3.33;;;15.50;99.90;;;;;;4948364;28;20642;-77
2023/09/02 05:41:15;;;;;;;4.65;3.03;;;15.60;99.90;;;;;;4946847;28;20038;-77
2023/09/02 05:43:41;;;;;;;2.33;2.00;;;15.60;99.90;;;;;;4945987;28;20035;-78
2023/09/02 05:46:06;;;;;;;3.28;1.70;;;15.80;99.90;;;;;;4933004;28;20043;-78
2023/09/02 05:48:33;;;;;;;1.98;1.83;;;15.70;99.90;;;;;;4946442;28;20086;-78
2023/09/02 05:50:59;;;;;;;1.58;1.48;;;15.80;99.90;;;;;;4929926;28;20031;-78
2023/09/02 05:53:24;;;;;;;3.00;2.17;;;15.80;99.90;;;;;;4950354;28;20133;-79
2023/09/02 05:55:56;;;;;;;3.50;1.98;;;15.80;99.90;;;;;;4965473;28;20058;-78
2023/09/02 05:58:23;;;;;;;1.60;1.50;;;15.90;99.90;;;;;;4934225;28;20042;-78
2023/09/02 06:00:49;;;;;;;2.05;1.60;;;15.90;99.90;;;;;;4927514;28;20514;-77
2023/09/02 06:03:15;;;;;;;3.10;2.30;;;16.00;99.90;;;;;;4933282;28;20039;-78
2023/09/02 06:05:40;;;;;;;4.68;3.05;;;16.00;99.90;;;;;;4927454;28;20443;-77
2023/09/02 06:08:06;;;;;;;3.80;2.15;;;16.00;99.90;;;;;;4932311;28;20035;-78
2023/09/02 06:10:31;;;;;;;2.58;2.33;;;16.10;99.90;;;;;;4946753;28;20114;-77
2023/09/02 06:12:57;;;;;;;3.17;2.10;;;16.20;99.90;;;;;;4946717;28;20035;-77
2023/09/02 06:15:22;;;;;;;2.15;1.90;;;16.20;99.90;;;;;;4935242;28;20106;-77
2023/09/02 06:17:48;;;;;;;2.10;1.90;;;16.20;99.90;;;;;;4942280;28;20047;-78
2023/09/02 06:20:20;;;;;;;2.38;1.70;;;16.20;99.90;;;;;;4948447;28;20036;-78
2023/09/02 06:22:45;;;;;;;2.65;2.22;;;16.20;99.90;;;;;;4935752;28;20055;-78
2023/09/02 06:25:12;;;;;;;2.10;1.50;;;16.30;99.90;;;;;;4920991;28;20113;-79
2023/09/02 06:27:37;;;;;;;7.15;2.60;;;16.40;99.90;;;;;;4930295;28;20038;-77
2023/09/02 06:30:03;;;;;;;2.15;1.83;;;16.40;99.90;;;;;;4904934;28;20039;-79
2023/09/02 06:32:29;;;;;;;1.98;1.45;;;16.50;99.90;;;;;;4941460;28;20553;-78
2023/09/02 06:34:55;;;;;;;5.50;1.80;;;16.50;99.90;;;;;;4936830;28;20059;-78
2023/09/02 06:37:20;;;;;;;2.05;1.85;;;16.50;99.90;;;;;;4930440;28;20094;-79
2023/09/02 06:39:46;;;;;;;2.05;1.83;;;16.60;99.90;;;;;;4915450;28;20385;-78
2023/09/02 06:42:11;;;;;;;3.63;2.33;;;16.60;99.90;;;;;;4950873;28;20023;-79
2023/09/02 06:44:37;;;;;;;2.17;1.80;;;16.70;99.90;;;;;;4931480;28;20031;-78
2023/09/02 06:47:03;;;;;;;2.22;1.48;;;16.80;99.90;;;;;;4912391;28;20039;-78
2023/09/02 06:49:32;;;;;;;2.00;1.55;;;16.80;99.90;;;;;;4943033;28;20477;-78
2023/09/02 06:51:58;;;;;;;3.40;1.40;;;16.80;99.90;;;;;;4944748;28;20045;-79
2023/09/02 06:54:23;;;;;;;2.80;1.50;;;16.90;99.90;;;;;;4945153;28;20040;-78
2023/09/02 06:56:50;;;;;;;3.97;1.40;;;16.90;99.90;;;;;;4944979;28;20031;-78
2023/09/02 06:59:16;;;;;;;2.47;1.27;;;17.00;99.90;;;;;;4942859;28;20377;-78
2023/09/02 07:01:41;;;;;;;2.55;1.58;;;17.10;99.90;;;;;;4950689;28;20028;-79
2023/09/02 07:04:07;;;;;;;3.17;1.33;;;17.10;99.90;;;;;;4916284;28;20046;-79
2023/09/02 07:06:32;;;;;;;3.80;1.90;;;17.20;99.90;;;;;;4936871;28;20070;-79
2023/09/02 07:08:58;;;;;;;5.80;2.20;;;17.30;99.90;;;;;;4895315;28;20394;-78
2023/09/02 07:11:24;;;;;;;3.00;1.88;;;17.40;99.90;;;;;;4917204;28;20035;-79
2023/09/02 07:13:50;;;;;;;1.45;1.15;;;17.50;99.90;;;;;;4929192;28;20039;-79
2023/09/02 07:16:15;;;;;;;1.40;1.00;;;17.60;99.90;;;;;;4922232;28;20506;-79
2023/09/02 07:18:41;;;;;;;1.92;1.40;;;17.60;99.90;;;;;;4933237;28;20044;-79
2023/09/02 07:21:06;;;;;;;1.98;1.30;;;17.70;99.90;;;;;;4905715;28;20488;-79
2023/09/02 07:23:32;;;;;;;1.25;1.10;;;17.90;99.90;;;;;;4937264;28;20482;-78
2023/09/02 07:26:01;;;;;;;1.25;1.15;;;17.90;99.90;;;;;;4932412;28;20049;-78
2023/09/02 07:28:27;;;;;;;0.75;0.75;;;18.00;99.90;;;;;;4904391;28;20567;-79
2023/09/02 07:30:53;;;;;;;0.82;0.82;;;18.00;99.90;;;;;;4932333;28;20039;-78
2023/09/02 07:33:19;;;;;;;1.60;1.50;;;18.10;99.90;;;;;;4933279;28;20039;-77
2023/09/02 07:35:45;;;;;;;1.23;1.13;;;18.20;99.90;;;;;;4933218;28;20031;-78
2023/09/02 07:38:10;;;;;;;1.63;1.35;;;18.50;99.90;;;;;;4917847;28;20035;-77
2023/09/02 07:40:36;;;;;;;1.90;1.33;;;18.60;99.90;;;;;;4921283;28;20065;-77
2023/09/02 07:43:02;;;;;;;2.00;1.45;;;18.70;99.90;;;;;;4929291;28;20403;-78
2023/09/02 07:45:28;;;;;;;2.28;1.98;;;19.00;99.90;;;;;;4913463;28;20534;-77
2023/09/02 07:47:54;;;;;;;3.55;2.00;;;19.10;99.90;;;;;;4925769;28;20054;-78
2023/09/02 07:50:20;;;;;;;1.70;1.60;;;19.20;99.90;;;;;;4936445;28;20042;-78
2023/09/02 07:52:45;;;;;;;1.50;1.40;;;19.40;99.90;;;;;;4965359;28;20043;-78
2023/09/02 07:55:11;;;;;;;1.75;1.65;;;19.60;99.90;;;;;;4950201;28;20667;-78
2023/09/02 07:57:36;;;;;;;2.38;1.50;;;19.70;99.90;;;;;;4951472;28;20038;-78
2023/09/02 08:00:03;;;;;;;3.53;1.17;;;19.90;99.90;;;;;;4935271;28;20510;-77
2023/09/02 08:02:28;;;;;;;1.90;1.08;;;19.80;99.90;;;;;;4915207;28;20558;-78
2023/09/02 08:04:54;;;;;;;1.23;1.00;;;20.00;99.90;;;;;;4932470;28;20321;-78
2023/09/02 08:07:19;;;;;;;1.48;0.68;;;20.00;99.90;;;;;;4931791;28;20039;-78
2023/09/02 08:09:48;;;;;;;2.03;1.00;;;20.00;99.90;;;;;;4949021;28;20636;-78
2023/09/02 08:12:14;;;;;;;1.63;1.13;;;20.00;99.90;;;;;;4957110;28;20035;-77
2023/09/02 08:14:39;;;;;;;1.42;1.00;;;20.20;99.90;;;;;;4933486;28;20062;-77
2023/09/02 08:17:05;;;;;;;1.42;0.82;;;20.10;99.90;;;;;;4952545;28;20039;-77
2023/09/02 08:19:31;;;;;;;0.80;0.80;;;20.20;99.90;;;;;;4952643;28;20528;-77
2023/09/02 08:21:57;;;;;;;5.20;1.40;;;20.50;99.90;;;;;;4951340;28;20458;-77
2023/09/02 08:24:22;;;;;;;2.92;1.17;;;20.80;99.90;;;;;;4930512;28;20038;-77
2023/09/02 08:26:48;;;;;;;2.08;1.10;;;21.00;99.90;;;;;;4953597;28;20114;-78
2023/09/02 08:29:13;;;;;;;6.65;1.48;;;21.10;99.90;;;;;;4966532;28;20525;-78
2023/09/02 08:31:39;;;;;;;1.30;1.17;;;21.10;99.90;;;;;;4918577;28;20509;-78
2023/09/02 08:34:05;;;;;;;3.80;1.27;;;21.20;99.90;;;;;;4900070;28;20562;-78
2023/09/02 08:36:30;;;;;;;2.92;1.23;;;21.50;99.90;;;;;;4932614;29;20126;-77
2023/09/02 08:38:56;;;;;;;3.05;1.98;;;21.70;99.90;;;;;;4927510;28;20031;-78
2023/09/02 08:41:25;;;;;;;3.78;1.65;;;22.00;99.90;;;;;;4912974;28;20035;-79
2023/09/02 08:43:53;;;;;;;3.00;1.38;;;22.10;99.90;;;;;;4915920;28;20113;-78
2023/09/02 08:46:19;;;;;;;2.65;1.23;;;22.30;99.90;;;;;;4935154;28;20027;-78
2023/09/02 08:48:44;;;;;;;1.52;1.10;;;22.50;99.90;;;;;;4919618;28;20038;-78
2023/09/02 08:51:11;;;;;;;1.45;0.85;;;22.40;99.90;;;;;;4949497;28;20569;-79
2023/09/02 08:53:37;;;;;;;3.85;0.95;;;22.50;99.90;;;;;;4918284;28;20039;-79
2023/09/02 08:56:03;;;;;;;1.48;1.10;;;22.50;99.90;;;;;;4932955;28;20487;-77
2023/09/02 08:58:29;;;;;;;1.40;1.13;;;22.50;99.90;;;;;;4929556;28;20042;-79
2023/09/02 09:00:54;;;;;;;1.13;1.02;;;22.70;99.90;;;;;;4937236;28;20041;-79
2023/09/02 09:03:20;;;;;;;1.30;0.90;;;22.80;99.90;;;;;;4940261;28;20034;-79
2023/09/02 09:05:45;;;;;;;3.28;1.05;;;22.80;99.90;;;;;;4946023;28;20030;-79
2023/09/02 09:08:12;;;;;;;0.63;0.60;;;22.80;99.90;;;;;;4931362;28;20031;-79
2023/09/02 09:10:38;;;;;;;1.20;0.93;;;23.00;99.90;;;;;;4950709;28;20039;-80
2023/09/02 09:13:08;;;;;;;1.33;0.90;;;23.20;99.90;;;;;;4916482;28;20034;-80
2023/09/02 09:15:34;;;;;;;3.10;1.10;;;23.50;99.90;;;;;;4955807;28;20461;-79
2023/09/02 09:17:59;;;;;;;5.95;1.10;;;23.50;99.90;;;;;;4930596;28;20030;-79
2023/09/02 09:20:25;;;;;;;3.88;1.10;;;23.80;99.90;;;;;;4936104;28;20094;-79
2023/09/02 09:22:52;;;;;;;0.75;0.73;;;24.00;99.90;;;;;;4948206;28;20092;-80
2023/09/02 09:25:18;;;;;;;2.72;0.70;;;23.90;99.90;;;;;;4940331;28;20609;-80
2023/09/02 09:27:44;;;;;;;0.85;0.60;;;24.20;99.90;;;;;;4935301;28;20043;-79
2023/09/02 09:30:30;;;;;;;1.05;0.88;;;24.40;99.90;;;;;;4918685;28;20035;-79
2023/09/02 09:32:56;;;;;;;;;;;24.50;99.90;;;;;;4944149;28;20030;-82
2023/09/02 09:35:22;;;;;;;0.80;0.70;;;24.40;99.90;;;;;;4940209;28;20480;-79
2023/09/02 09:37:54;;;;;;;1.98;1.00;;;24.80;99.90;;;;;;4912921;28;20041;-78
2023/09/02 09:40:35;;;;;;;3.72;1.00;;;25.10;99.90;;;;;;4933524;28;20090;-79
2023/09/02 09:43:02;;;;;;;2.10;0.80;;;25.40;99.90;;;;;;4915488;28;20422;-80
2023/09/02 09:45:28;;;;;;;1.05;0.82;;;25.70;99.90;;;;;;4931989;28;20050;-79
2023/09/02 09:48:08;;;;;;;0.65;0.65;;;25.60;99.90;;;;;;4932291;28;20038;-79
2023/09/02 09:50:34;;;;;;;3.65;0.98;;;25.80;99.90;;;;;;4936080;28;20399;-79
2023/09/02 09:53:01;;;;;;;2.55;0.90;;;26.10;99.90;;;;;;4945897;28;20039;-79
2023/09/02 09:55:28;;;;;;;1.10;0.73;;;26.10;99.90;;;;;;4951670;28;20041;-79
2023/09/02 09:57:57;;;;;;;0.77;0.70;;;26.30;99.90;;;;;;4950460;28;20071;-79
2023/09/02 10:00:23;;;;;;;1.38;0.77;;;26.40;99.90;;;;;;4933728;28;20134;-80
2023/09/02 10:02:56;;;;;;;2.35;1.27;;;26.50;99.90;;;;;;4931231;28;20253;-78
2023/09/02 10:05:28;;;;;;;1.98;0.68;;;26.80;99.90;;;;;;4932696;28;20034;-79
2023/09/02 10:08:04;;;;;;;1.05;0.68;;;27.10;99.90;;;;;;4932032;28;20074;-79
2023/09/02 10:10:36;;;;;;;1.48;0.90;;;27.00;99.90;;;;;;4947491;28;20346;-79
2023/09/02 10:13:02;;;;;;;1.00;0.60;;;27.30;99.90;;;;;;4941558;28;20394;-80
2023/09/02 10:15:28;;;;;;;0.95;0.75;;;27.60;99.90;;;;;;4932888;28;20035;-78
2023/09/02 10:17:58;;;;;;;0.85;0.80;;;27.60;99.90;;;;;;4946475;28;20051;-79
2023/09/02 10:20:30;;;;;;;0.80;0.68;;;27.70;99.90;;;;;;4931047;28;20035;-79
2023/09/02 10:23:02;;;;;;;1.20;0.90;;;27.90;99.90;;;;;;4933381;28;20062;-79
2023/09/02 10:25:28;;;;;;;0.98;0.70;;;27.80;99.90;;;;;;4951313;28;20470;-79
2023/09/02 10:28:03;;;;;;;2.97;0.90;;;28.20;99.90;;;;;;4914564;28;20490;-79
2023/09/02 10:30:36;;;;;;;1.60;0.63;;;28.30;99.90;;;;;;4932583;28;20042;-79
2023/09/02 10:33:32;;;;;;;1.88;0.90;;;28.40;99.90;;;;;;4932740;28;20348;-79
2023/09/02 10:35:59;;;;;;;1.08;0.98;;;28.50;99.90;;;;;;4927432;28;20031;-79
2023/09/02 10:38:25;;;;;;;1.15;0.80;;;28.70;99.90;;;;;;4927688;28;20031;-79
2023/09/02 10:41:01;;;;;;;3.17;1.10;;;28.60;99.90;;;;;;4922862;28;20031;-80
2023/09/02 10:43:27;;;;;;;2.67;1.27;;;28.90;99.90;;;;;;4915763;28;20313;-79
2023/09/02 10:45:52;;;;;;;1.08;0.80;;;29.00;99.90;;;;;;4946345;28;20584;-79
2023/09/02 10:48:18;;;;;;;2.25;1.17;;;29.00;99.90;;;;;;4953590;28;20102;-80
2023/09/02 10:50:44;;;;;;;2.63;1.23;;;29.10;99.90;;;;;;4918291;28;20038;-79
2023/09/02 10:53:09;;;;;;;2.33;1.10;;;29.10;99.90;;;;;;4945663;28;20027;-80
2023/09/02 10:55:58;;;;;;;1.05;0.90;;;29.40;99.90;;;;;;4948269;28;20483;-80
2023/09/02 10:58:24;;;;;;;1.60;1.20;;;29.50;99.90;;;;;;4949386;28;20035;-80
2023/09/02 11:00:49;;;;;;;2.03;0.98;;;29.80;99.90;;;;;;4949972;28;20046;-80
2023/09/02 11:03:15;;;;;;;3.60;1.17;;;29.60;99.90;;;;;;4918540;28;20049;-80
2023/09/02 11:06:04;;;;;;;2.80;1.50;;;29.60;99.90;;;;;;4945845;28;22133;-80
2023/09/02 11:08:44;;;;;;;2.00;1.10;;;29.90;99.90;;;;;;4954038;28;20034;-81
2023/09/02 11:11:12;;;;;;;2.13;1.10;;;30.20;99.90;;;;;;4948021;28;20038;-80
2023/09/02 11:14:08;;;;;;;6.55;1.85;;;30.30;99.90;;;;;;4266880;28;10000081;-79
2023/09/02 11:16:35;;;;;;;2.70;1.58;;;30.50;99.90;;;;;;4962721;28;20577;-79
2023/09/02 11:19:00;;;;;;;2.53;1.65;;;30.60;99.90;;;;;;4932495;28;20092;-79
2023/09/02 11:21:39;;;;;;;5.65;1.98;;;30.60;99.90;;;;;;4947329;28;20043;-81
2023/09/02 11:24:16;;;;;;;2.30;1.65;;;30.80;99.90;;;;;;4928430;28;20038;-80
2023/09/02 11:26:57;;;;;;;2.45;1.98;;;30.80;99.90;;;;;;4963083;28;20921;-80
2023/09/02 11:29:29;;;;;;;3.95;1.95;;;30.70;99.90;;;;;;4934281;28;20451;-80
2023/09/02 11:32:02;;;;;;;3.13;1.92;;;30.60;99.90;;;;;;4918730;28;20461;-79
2023/09/02 11:34:28;;;;;;;4.80;2.20;;;30.50;99.90;;;;;;4929476;28;20146;-81
2023/09/02 11:36:54;;;;;;;3.50;2.15;;;30.40;99.90;;;;;;4931238;28;20371;-81
2023/09/02 11:39:27;;;;;;;3.30;1.60;;;30.30;99.90;;;;;;4940006;28;20035;-81
2023/09/02 11:42:09;;;;;;;3.97;2.00;;;30.20;99.90;;;;;;4924088;28;20050;-80
2023/09/02 11:44:35;;;;;;;4.03;2.03;;;30.20;99.90;;;;;;4946313;28;20043;-79
2023/09/02 11:47:02;;;;;;;2.90;1.45;;;30.10;99.80;;;;;;4928322;28;20066;-82
2023/09/02 11:49:28;;;;;;;5.13;1.90;;;30.10;99.90;;;;;;4945602;28;20031;-80
2023/09/02 11:51:54;;;;;;;1.95;1.60;;;29.90;99.80;;;;;;4947160;28;20342;-81
2023/09/02 11:54:19;;;;;;;2.88;2.10;;;29.70;99.90;;;;;;4915175;28;20071;-79
2023/09/02 11:56:58;;;;;;;2.55;1.95;;;29.70;99.90;;;;;;4927371;28;20039;-79
2023/09/02 11:59:23;;;;;;;2.58;1.60;;;29.70;99.90;;;;;;4909093;28;20039;-79
2023/09/02 12:02:08;;;;;;;4.15;1.63;;;29.50;99.90;;;;;;4924794;28;20034;-78
2023/09/02 12:04:37;;;;;;;5.07;1.75;;;29.60;99.60;;;;;;4937838;28;20046;-82
2023/09/02 12:07:05;;;;;;;3.42;1.40;;;29.60;99.90;;;;;;4930980;28;21846;-80
2023/09/02 12:09:30;;;;;;;2.92;1.67;;;29.60;99.40;;;;;;4913474;28;21280;-80
2023/09/02 12:11:57;;;;;;;1.77;1.08;;;29.60;99.90;;;;;;4929632;28;20035;-81
2023/09/02 12:14:22;;;;;;;2.70;1.58;;;29.60;99.20;;;;;;4922546;28;20031;-80
2023/09/02 12:16:48;;;;;;;2.53;1.40;;;29.60;99.40;;;;;;4929521;28;20038;-79
2023/09/02 12:19:13;;;;;;;2.92;1.30;;;29.70;99.50;;;;;;4937236;28;20603;-81
2023/09/02 12:21:39;;;;;;;2.85;1.67;;;29.60;98.40;;;;;;4934572;28;20132;-81
2023/09/02 12:24:05;;;;;;;2.80;1.30;;;29.70;98.40;;;;;;4950153;28;20061;-83
2023/09/02 12:26:30;;;;;;;3.30;1.42;;;29.70;98.90;;;;;;4948733;28;20046;-81
2023/09/02 12:28:56;;;;;;;1.98;1.40;;;29.90;98.30;;;;;;4938004;28;20035;-81
2023/09/02 12:31:22;;;;;;;2.65;1.25;;;30.00;98.70;;;;;;4936597;28;20042;-81
2023/09/02 12:33:51;;;;;;;1.30;1.20;;;30.00;98.60;;;;;;4922273;28;20150;-81
2023/09/02 12:36:18;;;;;;;1.40;1.02;;;30.10;98.30;;;;;;4933601;28;20046;-81
2023/09/02 12:38:48;;;;;;;1.95;1.70;;;30.10;98.30;;;;;;4947848;28;20038;-81
2023/09/02 12:41:13;;;;;;;1.92;1.25;;;30.20;98.30;;;;;;4930380;28;20042;-81